createdAt,value
2023-01-08T00:00:05.225Z,88.80
2023-01-08T00:02:31.831Z,90.20
2023-01-08T00:04:58.403Z,90.20
2023-01-08T00:07:24.902Z,90.20
2023-01-08T00:09:52.200Z,90.20
2023-01-08T00:12:19.388Z,90.20
2023-01-08T00:14:45.962Z,90.00
2023-01-08T00:17:12.526Z,90.10
2023-01-08T00:19:41.895Z,90.20
2023-01-08T00:22:08.451Z,90.20
2023-01-08T00:24:35.040Z,90.10
2023-01-08T00:27:01.585Z,90.10
2023-01-08T00:29:28.151Z,90.10
2023-01-08T00:31:54.738Z,90.10
2023-01-08T00:34:21.236Z,90.10
2023-01-08T00:36:47.786Z,90.10
2023-01-08T00:39:14.308Z,90.10
2023-01-08T00:41:44.187Z,90.10
2023-01-08T00:44:10.789Z,90.10
2023-01-08T00:46:37.294Z,90.10
2023-01-08T00:49:03.808Z,90.10
2023-01-08T00:51:30.350Z,90.10
2023-01-08T00:53:56.910Z,90.10
2023-01-08T00:56:23.460Z,90.10
2023-01-08T00:58:49.973Z,90.50
2023-01-08T01:01:16.702Z,90.60
2023-01-08T01:03:43.700Z,90.10
2023-01-08T01:06:11.614Z,90.10
2023-01-08T01:08:38.190Z,90.10
2023-01-08T01:11:09.144Z,90.10
2023-01-08T01:13:35.808Z,90.10
2023-01-08T01:16:02.811Z,90.10
2023-01-08T01:18:29.448Z,90.10
2023-01-08T01:20:56.005Z,90.70
2023-01-08T01:23:22.618Z,90.50
2023-01-08T01:25:49.175Z,90.80
2023-01-08T01:28:16.194Z,90.90
2023-01-08T01:30:42.765Z,91.00
2023-01-08T01:33:09.311Z,90.60
2023-01-08T01:35:35.822Z,90.40
2023-01-08T01:38:02.405Z,90.50
2023-01-08T01:40:28.937Z,90.20
2023-01-08T01:42:55.446Z,90.00
2023-01-08T01:45:23.852Z,90.00
2023-01-08T01:48:00.652Z,90.30
2023-01-08T01:50:31.865Z,90.40
2023-01-08T01:52:58.455Z,90.80
2023-01-08T01:55:26.239Z,90.80
2023-01-08T01:57:55.159Z,90.50
2023-01-08T02:00:23.188Z,90.70
2023-01-08T02:02:50.237Z,90.90
2023-01-08T02:05:17.032Z,91.10
2023-01-08T02:08:02.606Z,90.70
2023-01-08T02:10:29.176Z,91.00
2023-01-08T02:13:07.200Z,91.00
2023-01-08T02:15:56.287Z,90.90
2023-01-08T02:18:34.817Z,90.70
2023-01-08T02:21:10.367Z,91.10
2023-01-08T02:23:36.909Z,91.40
2023-01-08T02:26:24.276Z,91.40
2023-01-08T02:28:57.466Z,91.00
2023-01-08T02:31:25.737Z,91.20
2023-01-08T02:33:52.313Z,91.00
2023-01-08T02:36:21.892Z,91.40
2023-01-08T02:38:57.825Z,91.70
2023-01-08T02:41:28.299Z,91.20
2023-01-08T02:43:56.767Z,91.40
2023-01-08T02:46:26.357Z,91.30
2023-01-08T02:48:55.061Z,91.60
2023-01-08T02:51:30.721Z,91.60
2023-01-08T02:53:59.455Z,91.60
2023-01-08T02:56:31.922Z,91.50
2023-01-08T02:58:59.586Z,91.40
2023-01-08T03:01:27.268Z,91.30
2023-01-08T03:03:56.442Z,91.40
2023-01-08T03:06:23.182Z,91.10
2023-01-08T03:08:51.675Z,90.90
2023-01-08T03:11:19.391Z,90.80
2023-01-08T03:13:57.412Z,90.60
2023-01-08T03:16:30.152Z,90.60
2023-01-08T03:19:01.021Z,89.90
2023-01-08T03:21:27.712Z,89.90
2023-01-08T03:23:54.260Z,90.50
2023-01-08T03:26:24.287Z,90.70
2023-01-08T03:28:53.355Z,90.70
2023-01-08T03:31:20.107Z,91.10
2023-01-08T03:33:47.070Z,91.40
2023-01-08T03:36:15.041Z,91.50
2023-01-08T03:38:50.281Z,91.50
2023-01-08T03:41:19.564Z,91.50
2023-01-08T03:43:46.173Z,91.70
2023-01-08T03:46:18.796Z,91.90
2023-01-08T03:48:45.961Z,91.70
2023-01-08T03:51:12.521Z,91.60
2023-01-08T03:53:39.097Z,91.60
2023-01-08T03:56:05.827Z,91.70
2023-01-08T03:58:32.760Z,91.50
2023-01-08T04:00:59.252Z,91.20
2023-01-08T04:03:26.023Z,91.40
2023-01-08T04:05:52.532Z,91.60
2023-01-08T04:08:19.061Z,91.50
2023-01-08T04:10:45.554Z,91.10
2023-01-08T04:13:12.121Z,91.10
2023-01-08T04:15:38.662Z,90.80
2023-01-08T04:18:05.262Z,91.00
2023-01-08T04:20:31.754Z,90.70
2023-01-08T04:22:58.238Z,91.30
2023-01-08T04:25:24.734Z,91.10
2023-01-08T04:27:51.283Z,91.00
2023-01-08T04:30:17.833Z,91.00
2023-01-08T04:32:44.381Z,90.80
2023-01-08T04:35:10.919Z,90.60
2023-01-08T04:37:37.486Z,90.40
2023-01-08T04:40:04.175Z,90.10
2023-01-08T04:42:30.700Z,90.10
2023-01-08T04:44:57.203Z,90.00
2023-01-08T04:47:23.707Z,90.10
2023-01-08T04:49:50.227Z,90.10
2023-01-08T04:52:16.709Z,90.00
2023-01-08T04:54:43.225Z,90.10
2023-01-08T04:57:09.720Z,90.00
2023-01-08T04:59:36.269Z,90.00
2023-01-08T05:02:02.959Z,90.00
2023-01-08T05:04:29.657Z,90.00
2023-01-08T05:06:56.170Z,90.00
2023-01-08T05:09:22.725Z,90.10
2023-01-08T05:11:49.234Z,90.00
2023-01-08T05:14:16.128Z,90.00
2023-01-08T05:16:42.700Z,90.10
2023-01-08T05:19:09.622Z,90.10
2023-01-08T05:21:36.144Z,90.10
2023-01-08T05:24:02.683Z,90.10
2023-01-08T05:26:29.160Z,90.00
2023-01-08T05:28:55.707Z,89.40
2023-01-08T05:31:22.391Z,90.10
2023-01-08T05:33:48.993Z,90.00
2023-01-08T05:36:15.562Z,90.10
2023-01-08T05:38:42.092Z,90.00
2023-01-08T05:41:09.457Z,90.10
2023-01-08T05:43:36.408Z,90.00
2023-01-08T05:46:03.384Z,90.10
2023-01-08T05:48:30.382Z,89.90
2023-01-08T05:50:56.921Z,89.60
2023-01-08T05:53:23.400Z,89.70
2023-01-08T05:55:49.908Z,90.10
2023-01-08T05:58:19.031Z,89.20
2023-01-08T06:00:46.116Z,89.20
2023-01-08T06:03:12.760Z,89.20
2023-01-08T06:05:39.347Z,89.50
2023-01-08T06:08:08.455Z,89.70
2023-01-08T06:10:37.078Z,89.40
2023-01-08T06:13:06.557Z,89.10
2023-01-08T06:15:33.125Z,88.50
2023-01-08T06:18:02.315Z,88.30
2023-01-08T06:20:28.938Z,88.50
2023-01-08T06:22:55.904Z,87.90
2023-01-08T06:25:22.530Z,88.20
2023-01-08T06:27:52.439Z,87.00
2023-01-08T06:30:19.083Z,87.70
2023-01-08T06:32:45.574Z,88.10
2023-01-08T06:35:12.087Z,88.00
2023-01-08T06:37:38.603Z,86.40
2023-01-08T06:40:05.350Z,86.40
2023-01-08T06:42:31.840Z,87.50
2023-01-08T06:44:58.362Z,87.50
2023-01-08T06:47:24.854Z,87.10
2023-01-08T06:49:51.429Z,87.10
2023-01-08T06:52:17.935Z,88.30
2023-01-08T06:54:44.474Z,87.10
2023-01-08T06:57:11.033Z,86.50
2023-01-08T06:59:37.570Z,85.90
2023-01-08T07:02:04.169Z,85.10
2023-01-08T07:04:30.728Z,84.60
2023-01-08T07:06:57.245Z,85.00
2023-01-08T07:09:23.757Z,85.90
2023-01-08T07:11:50.251Z,86.50
2023-01-08T07:14:17.305Z,86.20
2023-01-08T07:16:43.843Z,84.90
2023-01-08T07:19:10.443Z,84.20
2023-01-08T07:21:37.008Z,84.50
2023-01-08T07:24:04.450Z,83.00
2023-01-08T07:26:31.573Z,82.90
2023-01-08T07:28:58.141Z,83.90
2023-01-08T07:31:24.909Z,82.70
2023-01-08T07:33:51.488Z,82.80
2023-01-08T07:36:22.301Z,82.70
2023-01-08T07:38:49.811Z,82.70
2023-01-08T07:41:17.126Z,82.70
2023-01-08T07:43:44.062Z,81.60
2023-01-08T07:46:10.581Z,81.20
2023-01-08T07:48:37.322Z,81.30
2023-01-08T07:51:04.574Z,80.40
2023-01-08T07:53:31.066Z,80.60
2023-01-08T07:56:01.057Z,81.30
2023-01-08T07:58:27.903Z,81.50
2023-01-08T08:00:54.760Z,81.60
2023-01-08T08:03:21.460Z,82.80
2023-01-08T08:05:48.118Z,82.90
2023-01-08T08:08:14.849Z,82.20
2023-01-08T08:10:42.207Z,81.30
2023-01-08T08:13:08.735Z,79.60
2023-01-08T08:15:35.613Z,79.90
2023-01-08T08:18:02.249Z,80.70
2023-01-08T08:20:29.009Z,81.20
2023-01-08T08:23:02.458Z,81.00
2023-01-08T08:25:29.034Z,79.80
2023-01-08T08:27:59.066Z,79.70
2023-01-08T08:30:26.802Z,79.00
2023-01-08T08:32:53.930Z,77.50
2023-01-08T08:35:20.865Z,77.50
2023-01-08T08:37:47.409Z,79.10
2023-01-08T08:40:13.898Z,78.30
2023-01-08T08:42:40.474Z,76.50
2023-01-08T08:45:07.237Z,76.30
2023-01-08T08:47:33.755Z,75.60
2023-01-08T08:50:00.298Z,76.10
2023-01-08T08:52:26.844Z,75.10
2023-01-08T08:54:53.368Z,75.10
2023-01-08T08:57:19.906Z,75.20
2023-01-08T08:59:46.420Z,75.30
2023-01-08T09:02:13.206Z,74.30
2023-01-08T09:04:39.804Z,73.50
2023-01-08T09:07:06.364Z,72.40
2023-01-08T09:09:32.936Z,71.80
2023-01-08T09:11:59.507Z,73.90
2023-01-08T09:14:25.990Z,76.90
2023-01-08T09:16:52.577Z,74.30
2023-01-08T09:19:19.132Z,67.40
2023-01-08T09:21:45.728Z,66.00
2023-01-08T09:24:12.502Z,65.70
2023-01-08T09:26:39.033Z,64.20
2023-01-08T09:29:05.588Z,62.20
2023-01-08T09:31:32.180Z,61.70
2023-01-08T09:33:58.734Z,61.30
2023-01-08T09:36:25.316Z,60.50
2023-01-08T09:38:51.821Z,61.40
2023-01-08T09:41:21.498Z,61.20
2023-01-08T09:43:49.818Z,61.10
2023-01-08T09:46:18.523Z,60.30
2023-01-08T09:48:45.943Z,61.40
2023-01-08T09:51:13.159Z,61.60
2023-01-08T09:53:40.096Z,59.20
2023-01-08T09:56:11.337Z,58.10
2023-01-08T09:58:39.770Z,58.10
2023-01-08T10:01:06.585Z,57.00
2023-01-08T10:03:44.120Z,58.80
2023-01-08T10:06:14.438Z,57.80
2023-01-08T10:08:41.262Z,59.30
2023-01-08T10:11:08.380Z,59.30
2023-01-08T10:13:36.714Z,59.40
2023-01-08T10:16:06.821Z,61.10
2023-01-08T10:18:34.693Z,62.80
2023-01-08T10:21:01.209Z,64.70
2023-01-08T10:23:27.759Z,65.20
2023-01-08T10:25:55.775Z,63.50
2023-01-08T10:28:24.250Z,64.00
2023-01-08T10:30:52.460Z,63.40
2023-01-08T10:33:21.367Z,66.00
2023-01-08T10:35:57.224Z,65.90
2023-01-08T10:38:25.501Z,68.40
2023-01-08T10:40:52.368Z,70.90
2023-01-08T10:43:21.093Z,71.80
2023-01-08T10:46:04.392Z,71.40
2023-01-08T10:48:38.179Z,71.00
2023-01-08T10:51:23.550Z,73.10
2023-01-08T10:53:50.624Z,74.00
2023-01-08T10:56:18.969Z,72.50
2023-01-08T10:58:45.561Z,72.80
2023-01-08T11:01:17.191Z,73.70
2023-01-08T11:03:44.060Z,73.10
2023-01-08T11:06:12.085Z,75.10
2023-01-08T11:08:38.992Z,74.20
2023-01-08T11:11:06.887Z,72.30
2023-01-08T11:13:33.408Z,72.70
2023-01-08T11:15:59.904Z,76.80
2023-01-08T11:18:27.080Z,79.50
2023-01-08T11:20:54.472Z,80.00
2023-01-08T11:23:21.168Z,80.60
2023-01-08T11:25:51.059Z,81.60
2023-01-08T11:28:21.189Z,83.80
2023-01-08T11:30:53.542Z,83.50
2023-01-08T11:33:21.947Z,84.90
2023-01-08T11:36:00.105Z,85.50
2023-01-08T11:38:26.948Z,84.90
2023-01-08T11:40:58.278Z,85.40
2023-01-08T11:43:43.452Z,87.20
2023-01-08T11:46:13.013Z,88.00
2023-01-08T11:48:58.458Z,88.30
2023-01-08T11:51:34.627Z,88.90
2023-01-08T11:54:21.513Z,88.50
2023-01-08T11:56:51.093Z,89.20
2023-01-08T11:59:20.012Z,90.70
2023-01-08T12:01:55.847Z,91.20
2023-01-08T12:04:28.237Z,91.20
2023-01-08T12:07:08.314Z,91.20
2023-01-08T12:09:39.087Z,91.60
2023-01-08T12:12:29.352Z,92.30
2023-01-08T12:15:04.848Z,92.50
2023-01-08T12:17:40.587Z,92.90
2023-01-08T12:20:07.120Z,93.50
2023-01-08T12:22:52.442Z,93.50
2023-01-08T12:25:25.163Z,93.60
2023-01-08T12:28:01.858Z,93.50
2023-01-08T12:30:38.423Z,92.90
2023-01-08T12:33:08.988Z,92.90
2023-01-08T12:35:55.119Z,93.20
2023-01-08T12:38:24.705Z,93.00
2023-01-08T12:40:55.148Z,92.90
2023-01-08T12:43:24.288Z,93.30
2023-01-08T12:45:53.277Z,92.60
2023-01-08T12:48:24.405Z,92.60
2023-01-08T12:50:50.952Z,92.10
2023-01-08T12:53:26.745Z,92.00
2023-01-08T12:55:54.585Z,92.50
2023-01-08T12:58:28.643Z,93.00
2023-01-08T13:00:55.221Z,92.40
2023-01-08T13:03:26.584Z,91.40
2023-01-08T13:05:53.252Z,90.80
2023-01-08T13:08:29.127Z,91.40
2023-01-08T13:10:55.823Z,91.40
2023-01-08T13:13:44.166Z,91.40
2023-01-08T13:16:20.047Z,91.70
2023-01-08T13:18:52.695Z,91.50
2023-01-08T13:21:27.327Z,91.50
2023-01-08T13:23:59.443Z,91.50
2023-01-08T13:26:31.682Z,91.50
2023-01-08T13:29:27.598Z,90.40
2023-01-08T13:31:54.373Z,89.50
2023-01-08T13:34:22.663Z,87.60
2023-01-08T13:36:56.221Z,88.40
2023-01-08T13:39:23.954Z,85.60
2023-01-08T13:42:04.378Z,85.50
2023-01-08T13:44:35.522Z,86.90
2023-01-08T13:47:04.415Z,85.50
2023-01-08T13:49:44.770Z,87.60
2023-01-08T13:52:29.839Z,88.00
2023-01-08T13:54:56.704Z,88.40
2023-01-08T13:57:23.393Z,88.80
2023-01-08T13:59:54.094Z,88.30
2023-01-08T14:02:28.744Z,88.40
2023-01-08T14:04:55.839Z,88.40
2023-01-08T14:07:23.647Z,89.30
2023-01-08T14:09:50.729Z,89.80
2023-01-08T14:12:20.278Z,89.50
2023-01-08T14:14:54.082Z,89.30
2023-01-08T14:17:21.884Z,89.20
2023-01-08T14:19:48.677Z,89.30
2023-01-08T14:22:20.336Z,89.30
2023-01-08T14:24:49.746Z,89.40
2023-01-08T14:27:20.566Z,90.80
2023-01-08T14:29:47.143Z,90.30
2023-01-08T14:32:16.078Z,89.90
2023-01-08T14:34:43.325Z,90.00
2023-01-08T14:37:12.793Z,90.10
2023-01-08T14:39:39.870Z,89.70
2023-01-08T14:42:36.735Z,89.70
2023-01-08T14:45:06.318Z,90.00
2023-01-08T14:47:53.154Z,90.20
2023-01-08T14:50:19.705Z,90.90
2023-01-08T14:52:46.686Z,90.30
2023-01-08T14:55:18.640Z,90.20
2023-01-08T14:57:49.660Z,90.20
2023-01-08T15:00:17.686Z,90.80
2023-01-08T15:02:46.005Z,91.30
2023-01-08T15:05:15.368Z,91.30
2023-01-08T15:07:44.006Z,91.30
2023-01-08T15:10:42.908Z,91.30
2023-01-08T15:13:22.980Z,91.30
2023-01-08T15:16:10.132Z,91.30
2023-01-08T15:18:44.793Z,91.30
2023-01-08T15:21:16.269Z,91.30
2023-01-08T15:23:46.362Z,90.80
2023-01-08T15:26:13.755Z,90.70
2023-01-08T15:28:44.547Z,90.90
2023-01-08T15:31:11.169Z,91.20
2023-01-08T15:33:39.562Z,91.40
2023-01-08T15:36:06.193Z,91.50
2023-01-08T15:38:32.767Z,91.20
2023-01-08T15:40:59.349Z,91.20
2023-01-08T15:43:25.911Z,91.20
2023-01-08T15:45:52.601Z,91.20
2023-01-08T15:48:19.473Z,91.20
2023-01-08T15:50:46.067Z,91.20
2023-01-08T15:53:15.732Z,91.30
2023-01-08T15:55:43.547Z,91.20
2023-01-08T15:58:11.756Z,91.70
2023-01-08T16:00:38.578Z,91.60
2023-01-08T16:03:07.149Z,92.10
2023-01-08T16:05:34.283Z,91.90
2023-01-08T16:08:00.948Z,91.80
2023-01-08T16:10:29.039Z,91.40
2023-01-08T16:12:55.882Z,91.20
2023-01-08T16:15:22.815Z,91.20
2023-01-08T16:17:49.453Z,91.20
2023-01-08T16:20:16.866Z,91.60
2023-01-08T16:22:43.707Z,91.20
2023-01-08T16:25:10.799Z,91.20
2023-01-08T16:27:38.363Z,91.70
2023-01-08T16:30:06.199Z,91.60
2023-01-08T16:32:32.821Z,91.20
2023-01-08T16:34:59.417Z,91.70
2023-01-08T16:37:26.308Z,91.50
2023-01-08T16:39:52.846Z,91.20
2023-01-08T16:42:19.409Z,91.20
2023-01-08T16:44:46.129Z,91.20
2023-01-08T16:47:12.757Z,91.20
2023-01-08T16:49:41.632Z,91.50
2023-01-08T16:52:09.377Z,91.20
2023-01-08T16:54:36.130Z,91.40
2023-01-08T16:57:02.732Z,91.70
2023-01-08T16:59:29.279Z,91.80
2023-01-08T17:01:56.432Z,91.60
2023-01-08T17:04:23.004Z,91.90
2023-01-08T17:06:49.985Z,91.90
2023-01-08T17:09:16.567Z,91.40
2023-01-08T17:11:43.203Z,91.10
2023-01-08T17:14:10.059Z,91.10
2023-01-08T17:16:36.943Z,91.10
2023-01-08T17:19:03.664Z,91.10
2023-01-08T17:21:30.230Z,91.10
2023-01-08T17:23:56.792Z,91.10
2023-01-08T17:26:23.396Z,91.10
2023-01-08T17:28:50.585Z,91.10
2023-01-08T17:31:18.461Z,91.10
2023-01-08T17:33:49.715Z,90.70
2023-01-08T17:36:20.543Z,90.70
2023-01-08T17:38:49.257Z,91.10
2023-01-08T17:41:36.398Z,89.30
2023-01-08T17:44:06.595Z,88.70
2023-01-08T17:46:37.378Z,89.30
2023-01-08T17:49:04.065Z,88.60
2023-01-08T17:51:32.273Z,88.10
2023-01-08T17:53:58.994Z,87.60
2023-01-08T17:56:25.578Z,86.70
2023-01-08T17:58:52.386Z,86.10
2023-01-08T18:01:19.416Z,85.80
2023-01-08T18:03:46.239Z,85.30
2023-01-08T18:06:13.178Z,87.20
2023-01-08T18:08:40.532Z,87.30
2023-01-08T18:11:07.747Z,88.50
2023-01-08T18:13:34.380Z,88.50
2023-01-08T18:16:01.984Z,88.20
2023-01-08T18:18:28.810Z,88.30
2023-01-08T18:20:55.358Z,86.10
2023-01-08T18:23:21.976Z,85.80
2023-01-08T18:25:48.534Z,85.60
2023-01-08T18:28:15.289Z,84.70
2023-01-08T18:30:42.872Z,84.60
2023-01-08T18:33:09.984Z,85.40
2023-01-08T18:35:36.576Z,86.80
2023-01-08T18:38:03.251Z,87.10
2023-01-08T18:40:30.096Z,87.50
2023-01-08T18:42:56.624Z,88.40
2023-01-08T18:45:23.206Z,88.40
2023-01-08T18:47:52.603Z,89.50
2023-01-08T18:50:19.145Z,90.10
2023-01-08T18:52:46.057Z,89.60
2023-01-08T18:55:12.728Z,89.40
2023-01-08T18:57:39.428Z,89.20
2023-01-08T19:03:34.947Z,88.40
2023-01-08T19:06:01.454Z,88.90
2023-01-08T19:08:27.982Z,89.60
2023-01-08T19:10:54.572Z,89.30
2023-01-08T19:13:21.085Z,89.70
2023-01-08T19:15:47.609Z,89.40
2023-01-08T19:18:14.358Z,89.30
2023-01-08T19:20:43.177Z,89.80
2023-01-08T19:23:10.150Z,89.90
2023-01-08T19:25:38.243Z,89.10
2023-01-08T19:28:04.954Z,88.60
2023-01-08T19:30:31.567Z,89.10
2023-01-08T19:32:58.109Z,89.40
2023-01-08T19:35:24.729Z,89.80
2023-01-08T19:37:51.308Z,90.00
2023-01-08T19:40:17.998Z,90.00
2023-01-08T19:43:03.253Z,90.20
2023-01-08T19:45:29.846Z,90.60
2023-01-08T19:47:56.401Z,90.40
2023-01-08T19:50:23.416Z,90.40
2023-01-08T19:52:51.308Z,90.20
2023-01-08T19:55:21.950Z,90.10
2023-01-08T19:57:49.167Z,89.90
2023-01-08T20:00:16.561Z,90.20
2023-01-08T20:02:43.413Z,89.10
2023-01-08T20:05:09.977Z,88.00
2023-01-08T20:07:36.688Z,87.90
2023-01-08T20:10:04.572Z,87.90
2023-01-08T20:12:31.163Z,87.90
2023-01-08T20:14:57.844Z,86.80
2023-01-08T20:17:25.253Z,87.40
2023-01-08T20:19:52.321Z,87.60
2023-01-08T20:22:19.034Z,86.90
2023-01-08T20:24:45.794Z,87.80
2023-01-08T20:27:12.366Z,87.80
2023-01-08T20:29:39.000Z,87.90
2023-01-08T20:32:06.033Z,87.80
2023-01-08T20:34:32.614Z,87.80
2023-01-08T20:36:59.354Z,88.40
2023-01-08T20:39:26.416Z,88.30
2023-01-08T20:42:01.035Z,88.80
2023-01-08T20:44:30.577Z,87.90
2023-01-08T20:46:57.199Z,88.60
2023-01-08T20:49:26.330Z,87.90
2023-01-08T20:51:59.226Z,88.20
2023-01-08T20:54:26.489Z,88.60
2023-01-08T20:56:54.579Z,88.50
2023-01-08T20:59:21.106Z,88.50
2023-01-08T21:01:47.702Z,88.40
2023-01-08T21:04:14.508Z,88.40
2023-01-08T21:06:41.056Z,88.10
2023-01-08T21:09:09.218Z,88.10
2023-01-08T21:11:37.320Z,87.60
2023-01-08T21:14:04.231Z,87.60
2023-01-08T21:16:31.667Z,87.20
2023-01-08T21:18:58.707Z,86.80
2023-01-08T21:21:28.654Z,87.20
2023-01-08T21:23:55.962Z,87.50
2023-01-08T21:26:23.019Z,86.70
2023-01-08T21:28:49.764Z,87.20
2023-01-08T21:31:20.700Z,87.50
2023-01-08T21:33:48.997Z,86.70
2023-01-08T21:36:17.198Z,85.40
2023-01-08T21:38:44.252Z,86.40
2023-01-08T21:41:12.331Z,86.10
2023-01-08T21:44:17.528Z,86.80
2023-01-08T21:46:44.142Z,86.00
2023-01-08T21:49:10.785Z,86.60
2023-01-08T21:51:55.848Z,87.70
2023-01-08T21:54:22.440Z,87.20
2023-01-08T21:56:49.012Z,87.20
2023-01-08T21:59:15.582Z,86.50
2023-01-08T22:01:42.127Z,86.80
2023-01-08T22:04:08.738Z,87.60
2023-01-08T22:06:35.419Z,88.90
2023-01-08T22:09:01.995Z,90.00
2023-01-08T22:11:28.517Z,90.60
2023-01-08T22:13:56.395Z,90.60
2023-01-08T22:16:23.003Z,90.60
2023-01-08T22:18:49.617Z,90.60
2023-01-08T22:21:16.259Z,91.30
2023-01-08T22:23:42.817Z,91.60
2023-01-08T22:26:11.580Z,91.90
2023-01-08T22:28:39.377Z,92.30
2023-01-08T22:31:10.386Z,92.30
2023-01-08T22:33:37.363Z,92.70
2023-01-08T22:36:04.230Z,93.00
2023-01-08T22:43:42.872Z,94.00
2023-01-08T22:46:11.783Z,93.90
2023-01-08T22:48:38.356Z,94.80
2023-01-08T22:51:05.243Z,95.50
2023-01-08T22:53:31.891Z,95.60
2023-01-08T22:55:58.398Z,95.60
2023-01-08T22:58:24.897Z,95.90
2023-01-08T23:00:51.476Z,96.40
2023-01-08T23:03:17.959Z,96.70
2023-01-08T23:05:45.450Z,96.60
2023-01-08T23:08:12.076Z,96.60
2023-01-08T23:10:38.750Z,96.70
2023-01-08T23:13:05.432Z,97.20
2023-01-08T23:15:32.596Z,97.20
2023-01-08T23:17:59.151Z,97.30
2023-01-08T23:20:25.703Z,97.30
2023-01-08T23:22:52.273Z,97.30
2023-01-08T23:25:18.864Z,97.30
2023-01-08T23:27:45.593Z,97.30
2023-01-08T23:30:12.290Z,97.90
2023-01-08T23:32:39.783Z,98.10
2023-01-08T23:35:06.605Z,98.40
2023-01-08T23:37:33.505Z,98.40
2023-01-08T23:40:00.276Z,98.30
2023-01-08T23:42:28.149Z,98.20
2023-01-08T23:44:54.705Z,98.30
2023-01-08T23:47:21.183Z,98.40
2023-01-08T23:49:47.693Z,98.40
2023-01-08T23:52:14.215Z,98.50
2023-01-08T23:54:40.809Z,98.50
2023-01-08T23:57:07.293Z,98.40
2023-01-08T23:59:33.903Z,98.40
